Time;durP1;ratioP1;P1;durP2;ratioP2;P2;SDS_P1;SDS_P2;PMS_P1;PMS_P2;Temp;Humidity;BMP_temperature;BMP_pressure;BME280_temperature;BME280_humidity;BME280_pressure;Samples;Min_cycle;Max_cycle;Signal;HPM_P1;HPM_P2
2023/09/03 00:00:20;;;;;;;7.75;5.45;;;;;;;-140.66;100.00;55571.53;5114559;28;20023;-72
2023/09/03 00:03:06;;;;;;;7.68;5.90;;;;;;;-140.66;100.00;55571.53;5114738;28;20027;-73
2023/09/03 00:05:56;;;;;;;7.75;5.50;;;;;;;-140.66;100.00;55571.53;5114228;28;20425;-71
2023/09/03 00:08:42;;;;;;;9.40;5.22;;;;;;;-140.66;100.00;55571.53;5113506;28;20039;-72
2023/09/03 00:11:27;;;;;;;7.70;5.63;;;;;;;-140.66;100.00;55571.53;5113888;28;20035;-73
2023/09/03 00:14:13;;;;;;;7.85;5.60;;;;;;;-140.66;100.00;55571.53;5114601;28;20427;-72
2023/09/03 00:16:59;;;;;;;7.03;5.57;;;;;;;-140.66;100.00;55571.53;5114272;28;20044;-72
2023/09/03 00:19:45;;;;;;;8.95;5.72;;;;;;;-140.66;100.00;55571.53;5113832;28;20065;-72
2023/09/03 00:22:30;;;;;;;6.93;5.40;;;;;;;-140.66;100.00;55571.53;5115666;28;20023;-73
2023/09/03 00:25:16;;;;;;;13.35;5.72;;;;;;;-140.66;100.00;55571.53;5114313;28;20490;-73
2023/09/03 00:28:03;;;;;;;7.63;5.28;;;;;;;-140.66;100.00;55571.53;5113646;28;20028;-73
2023/09/03 00:31:02;;;;;;;7.18;5.82;;;;;;;-140.66;100.00;55571.53;5115693;28;20102;-73
2023/09/03 00:33:48;;;;;;;9.55;5.78;;;;;;;-140.66;100.00;55571.53;5113615;28;20035;-73
2023/09/03 00:36:34;;;;;;;7.93;5.97;;;;;;;-140.66;100.00;55571.53;5113547;28;20106;-73
2023/09/03 00:39:19;;;;;;;7.93;5.97;;;;;;;-140.66;100.00;55571.53;5113342;28;20034;-73
2023/09/03 00:42:05;;;;;;;7.82;5.80;;;;;;;-140.66;100.00;55571.53;5099961;28;20039;-71
2023/09/03 00:44:51;;;;;;;7.97;6.07;;;;;;;-140.66;100.00;55571.53;5099837;28;20043;-72
2023/09/03 00:47:37;;;;;;;7.43;6.10;;;;;;;-140.66;100.00;55571.53;5100271;28;20019;-72
2023/09/03 00:50:25;;;;;;;6.88;5.68;;;;;;;-140.66;100.00;55571.53;5099375;28;20062;-72
2023/09/03 00:53:12;;;;;;;8.80;5.80;;;;;;;-140.66;100.00;55571.53;5114570;28;20118;-73
2023/09/03 00:55:58;;;;;;;8.88;6.15;;;;;;;-140.66;100.00;55571.53;5113245;28;20039;-73
2023/09/03 00:58:45;;;;;;;8.77;6.22;;;;;;;-140.66;100.00;55571.53;5115182;28;20035;-72
2023/09/03 01:01:30;;;;;;;9.18;6.28;;;;;;;-140.66;100.00;55571.53;5113733;28;20030;-72
2023/09/03 01:04:18;;;;;;;6.95;5.90;;;;;;;-140.66;100.00;55571.53;5114454;28;20346;-71
2023/09/03 01:07:04;;;;;;;8.68;5.85;;;;;;;-140.66;100.00;55571.53;5114079;28;20027;-73
2023/09/03 01:09:49;;;;;;;13.02;6.18;;;;;;;-140.66;100.00;55571.53;5114011;28;20122;-73
2023/09/03 01:12:41;;;;;;;9.45;5.70;;;;;;;-140.66;100.00;55571.53;5113533;28;20106;-72
2023/09/03 01:15:31;;;;;;;11.38;5.68;;;;;;;-140.66;100.00;55571.53;5112273;28;20096;-72
2023/09/03 01:18:23;;;;;;;9.63;6.13;;;;;;;-140.66;100.00;55571.53;5114014;28;20043;-73
2023/09/03 01:21:57;;;;;;;9.60;5.97;;;;;;;-140.66;100.00;55571.53;5112813;28;20125;-71
2023/09/03 01:25:06;;;;;;;10.27;5.90;;;;;;;-140.66;100.00;55571.53;5013094;28;20041;-72
2023/09/03 01:28:13;;;;;;;13.68;5.97;;;;;;;-140.66;100.00;55571.53;5112532;28;20110;-72
2023/09/03 01:31:03;;;;;;;7.75;6.00;;;;;;;-140.66;100.00;55571.53;5086298;28;20038;-72
2023/09/03 01:33:49;;;;;;;10.02;6.28;;;;;;;-140.66;100.00;55571.53;5112961;28;20031;-72
2023/09/03 01:36:35;;;;;;;11.77;6.25;;;;;;;-140.66;100.00;55571.53;5113719;28;20077;-72
2023/09/03 01:39:21;;;;;;;10.15;6.70;;;;;;;-140.66;100.00;55571.53;5098387;28;20028;-73
2023/09/03 01:42:07;;;;;;;12.43;6.93;;;;;;;-140.66;100.00;55571.53;5114296;28;20027;-73
2023/09/03 01:44:53;;;;;;;10.65;7.22;;;;;;;-140.66;100.00;55571.53;5114244;28;20094;-73
2023/09/03 01:47:50;;;;;;;12.63;6.68;;;;;;;-140.66;100.00;55571.53;5113914;28;20446;-73
2023/09/03 01:50:52;;;;;;;11.70;6.60;;;;;;;-140.66;100.00;55571.53;5099074;28;20028;-73
2023/09/03 01:54:04;;;;;;;9.93;6.85;;;;;;;-140.66;100.00;55571.53;5114664;28;20357;-72
2023/09/03 01:57:02;;;;;;;9.10;6.30;;;;;;;-140.66;100.00;55571.53;5114327;28;20027;-73
2023/09/03 02:00:04;;;;;;;9.90;6.47;;;;;;;-140.66;100.00;55571.53;5114463;28;20034;-72
2023/09/03 02:02:51;;;;;;;9.50;6.68;;;;;;;-140.66;100.00;55571.53;5114246;28;20031;-72
2023/09/03 02:05:37;;;;;;;10.10;7.35;;;;;;;-140.66;100.00;55571.53;5113456;28;20145;-72
2023/09/03 02:08:23;;;;;;;9.57;7.47;;;;;;;-140.66;100.00;55571.53;5098975;28;20019;-72
2023/09/03 02:11:09;;;;;;;13.52;8.43;;;;;;;-140.66;100.00;55571.53;5098156;28;20115;-72
2023/09/03 02:13:54;;;;;;;11.93;7.28;;;;;;;-140.66;100.00;55571.53;5114191;28;20088;-72
2023/09/03 02:16:41;;;;;;;12.60;8.20;;;;;;;-140.66;100.00;55571.53;5114445;28;20039;-73
2023/09/03 02:19:26;;;;;;;11.45;7.90;;;;;;;-140.66;100.00;55571.53;5112647;28;20349;-73
2023/09/03 02:22:12;;;;;;;11.05;7.03;;;;;;;-140.66;100.00;55571.53;5098435;28;20131;-72
2023/09/03 02:24:58;;;;;;;12.15;7.03;;;;;;;-140.66;100.00;55571.53;5117374;28;20114;-72
2023/09/03 02:27:44;;;;;;;8.00;6.18;;;;;;;-140.66;100.00;55571.53;5117152;28;20151;-72
2023/09/03 02:30:29;;;;;;;8.32;6.65;;;;;;;-140.66;100.00;55571.53;5115816;28;20027;-73
2023/09/03 02:33:15;;;;;;;8.05;6.68;;;;;;;-140.66;100.00;55571.53;5116396;28;20024;-73
2023/09/03 02:36:01;;;;;;;9.73;6.32;;;;;;;-140.66;100.00;55571.53;5117568;28;20059;-73
2023/09/03 02:38:46;;;;;;;7.35;6.45;;;;;;;-140.66;100.00;55571.53;5116433;28;20467;-73
2023/09/03 02:41:33;;;;;;;8.50;6.60;;;;;;;-140.66;100.00;55571.53;5117073;28;20502;-73
2023/09/03 02:44:19;;;;;;;12.25;6.93;;;;;;;-140.66;100.00;55571.53;5116639;28;20061;-73
2023/09/03 02:47:04;;;;;;;8.65;7.13;;;;;;;-140.66;100.00;55571.53;5118308;28;20055;-72
2023/09/03 02:49:50;;;;;;;9.85;6.75;;;;;;;-140.66;100.00;55571.53;5116020;28;20020;-72
2023/09/03 02:52:36;;;;;;;10.13;7.55;;;;;;;-140.66;100.00;55571.53;5118159;28;20024;-72
2023/09/03 02:55:22;;;;;;;9.88;7.05;;;;;;;-140.66;100.00;55571.53;5117042;28;20032;-72
2023/09/03 02:58:07;;;;;;;12.63;7.68;;;;;;;-140.66;100.00;55571.53;5117206;28;20024;-73
2023/09/03 03:00:53;;;;;;;8.80;7.90;;;;;;;-140.66;100.00;55571.53;5117142;28;20043;-72
2023/09/03 03:03:40;;;;;;;12.18;8.07;;;;;;;-140.66;100.00;55571.53;5116858;28;20019;-72
2023/09/03 03:06:26;;;;;;;10.68;7.55;;;;;;;-140.66;100.00;55571.53;5116570;28;20015;-72
2023/09/03 03:09:12;;;;;;;11.07;7.47;;;;;;;-140.66;100.00;55571.53;5101272;28;20096;-73
2023/09/03 03:11:57;;;;;;;13.20;8.13;;;;;;;-140.66;100.00;55571.53;5116301;28;20020;-73
2023/09/03 03:14:43;;;;;;;10.82;8.65;;;;;;;-140.66;100.00;55571.53;5100626;28;20024;-72
2023/09/03 03:17:29;;;;;;;11.52;8.90;;;;;;;-140.66;100.00;55571.53;5116769;28;20453;-72
2023/09/03 03:20:15;;;;;;;12.38;7.85;;;;;;;-140.66;100.00;55571.53;5117006;28;20019;-73
2023/09/03 03:23:00;;;;;;;13.57;9.20;;;;;;;-140.66;100.00;55571.53;5116388;28;20107;-72
2023/09/03 03:25:52;;;;;;;14.23;9.60;;;;;;;-140.66;100.00;55571.53;5115717;28;20020;-72
2023/09/03 03:28:38;;;;;;;14.45;10.50;;;;;;;-140.66;100.00;55571.53;5100794;28;20088;-72
2023/09/03 03:31:24;;;;;;;13.77;9.70;;;;;;;-140.66;100.00;55571.53;5115625;28;20452;-72
2023/09/03 03:34:09;;;;;;;12.48;8.93;;;;;;;-140.66;100.00;55571.53;5116276;28;20027;-72
2023/09/03 03:36:55;;;;;;;15.00;9.23;;;;;;;-140.66;100.00;55571.53;5100870;28;20027;-73
2023/09/03 03:39:41;;;;;;;15.52;9.25;;;;;;;-140.66;100.00;55571.53;5099991;28;20361;-72
2023/09/03 03:42:27;;;;;;;14.05;8.73;;;;;;;-140.66;100.00;55571.53;5116178;28;20053;-72
2023/09/03 03:45:12;;;;;;;12.43;8.55;;;;;;;-140.66;100.00;55571.53;5115924;28;20048;-73
2023/09/03 03:47:58;;;;;;;12.68;8.50;;;;;;;-140.66;100.00;55571.53;5114992;28;20034;-73
2023/09/03 03:50:44;;;;;;;12.10;8.13;;;;;;;-140.66;100.00;55571.53;5116604;28;20019;-73
2023/09/03 03:53:30;;;;;;;11.32;7.90;;;;;;;-140.66;100.00;55571.53;5101509;28;20084;-72
2023/09/03 03:56:16;;;;;;;12.93;7.43;;;;;;;-140.66;100.00;55571.53;5114502;28;20031;-73
2023/09/03 03:59:01;;;;;;;9.95;7.45;;;;;;;-140.66;100.00;55571.53;5116035;28;20480;-73
2023/09/03 04:01:47;;;;;;;11.55;7.07;;;;;;;-140.66;100.00;55571.53;5116144;28;20034;-73
2023/09/03 04:04:33;;;;;;;16.98;7.90;;;;;;;-140.66;100.00;55571.53;5115550;28;20042;-73
2023/09/03 04:07:19;;;;;;;12.68;7.65;;;;;;;-140.66;100.00;55571.53;5116042;28;20088;-73
2023/09/03 04:10:05;;;;;;;11.50;7.15;;;;;;;-140.66;100.00;55571.53;5115751;28;20085;-72
2023/09/03 04:12:51;;;;;;;13.07;7.93;;;;;;;-140.66;100.00;55571.53;5100033;28;20374;-72
2023/09/03 04:15:37;;;;;;;15.55;7.75;;;;;;;-140.66;100.00;55571.53;5114782;28;20104;-73
2023/09/03 04:18:24;;;;;;;12.38;7.88;;;;;;;-140.66;100.00;55571.53;5099962;28;20427;-73
2023/09/03 04:21:10;;;;;;;11.65;7.20;;;;;;;-140.66;100.00;55571.53;5115036;28;20024;-72
2023/09/03 04:23:56;;;;;;;14.48;7.93;;;;;;;-140.66;100.00;55571.53;5114387;28;20035;-71
2023/09/03 04:26:42;;;;;;;13.18;7.43;;;;;;;-140.66;100.00;55571.53;5113670;28;20023;-72
2023/09/03 04:29:28;;;;;;;9.40;6.40;;;;;;;-140.66;100.00;55571.53;5115373;28;20027;-72
2023/09/03 04:32:14;;;;;;;11.15;6.97;;;;;;;-140.66;100.00;55571.53;5072754;28;20070;-72
2023/09/03 04:34:59;;;;;;;14.55;6.57;;;;;;;-140.66;100.00;55571.53;5099402;28;20102;-72
2023/09/03 04:37:45;;;;;;;10.02;6.75;;;;;;;-140.66;100.00;55571.53;5099767;28;20338;-72
2023/09/03 04:40:34;;;;;;;8.40;5.57;;;;;;;-140.66;100.00;55571.53;5099720;28;20421;-72
2023/09/03 04:43:20;;;;;;;9.43;6.60;;;;;;;-140.66;100.00;55571.53;5099207;28;20024;-73
2023/09/03 04:46:07;;;;;;;7.78;6.22;;;;;;;-140.66;100.00;55571.53;5098757;28;20054;-73
2023/09/03 04:48:52;;;;;;;8.70;6.18;;;;;;;-140.66;100.00;55571.53;5115306;28;20092;-72
2023/09/03 04:51:38;;;;;;;12.40;6.70;;;;;;;-140.66;100.00;55571.53;5099322;28;20495;-73
2023/09/03 04:54:24;;;;;;;10.35;5.70;;;;;;;-140.66;100.00;55571.53;5113520;28;20059;-74
2023/09/03 04:57:10;;;;;;;13.18;6.28;;;;;;;-140.66;100.00;55571.53;5115157;28;20444;-73
2023/09/03 04:59:56;;;;;;;12.65;6.65;;;;;;;-140.66;100.00;55571.53;5114184;28;20052;-73
2023/09/03 05:02:42;;;;;;;10.05;6.68;;;;;;;-140.66;100.00;55571.53;5115055;28;20023;-72
2023/09/03 05:05:28;;;;;;;8.10;5.93;;;;;;;-140.66;100.00;55571.53;5099331;28;20030;-73
2023/09/03 05:08:13;;;;;;;8.50;6.35;;;;;;;-140.66;100.00;55571.53;5115566;28;20038;-72
2023/09/03 05:11:07;;;;;;;9.70;6.00;;;;;;;-140.66;100.00;55571.53;5114701;28;20024;-73
2023/09/03 05:13:53;;;;;;;11.00;5.43;;;;;;;-140.66;100.00;55571.53;5114990;28;20098;-72
2023/09/03 05:16:39;;;;;;;10.45;6.22;;;;;;;-140.66;100.00;55571.53;5114401;28;20023;-73
2023/09/03 05:19:27;;;;;;;7.38;5.50;;;;;;;-140.66;100.00;55571.53;5113705;28;20106;-73
2023/09/03 05:22:13;;;;;;;10.68;5.72;;;;;;;-140.66;100.00;55571.53;5100456;28;20037;-73
2023/09/03 05:24:59;;;;;;;12.65;6.30;;;;;;;-140.66;100.00;55571.53;5098608;28;20031;-73
2023/09/03 05:27:44;;;;;;;8.70;6.20;;;;;;;-140.66;100.00;55571.53;5100229;28;20028;-74
2023/09/03 05:30:30;;;;;;;10.07;5.90;;;;;;;-140.66;100.00;55571.53;5114842;28;20024;-74
2023/09/03 05:33:16;;;;;;;7.35;5.50;;;;;;;-140.66;100.00;55571.53;5113792;28;20023;-74
2023/09/03 05:36:02;;;;;;;7.75;5.38;;;;;;;-140.66;100.00;55571.53;5115012;28;20449;-74
2023/09/03 05:38:47;;;;;;;7.93;5.55;;;;;;;-140.66;100.00;55571.53;5099895;28;20035;-74
2023/09/03 05:41:33;;;;;;;7.53;5.10;;;;;;;-140.66;100.00;55571.53;5114075;28;20024;-74
2023/09/03 05:44:19;;;;;;;8.07;5.97;;;;;;;-140.66;100.00;55571.53;5112908;28;20390;-73
2023/09/03 05:47:05;;;;;;;9.48;5.82;;;;;;;-140.66;100.00;55571.53;5113587;28;20016;-74
2023/09/03 05:49:58;;;;;;;7.00;5.47;;;;;;;-140.66;100.00;55571.53;5114306;28;20364;-74
2023/09/03 05:52:44;;;;;;;7.90;5.38;;;;;;;-140.66;100.00;55571.53;5111875;28;20510;-74
2023/09/03 05:55:29;;;;;;;6.50;5.28;;;;;;;-140.66;100.00;55571.53;5113261;28;20412;-73
2023/09/03 05:58:16;;;;;;;6.30;5.25;;;;;;;-140.66;100.00;55571.53;5114958;27;20020;-74
2023/09/03 06:01:06;;;;;;;10.20;5.53;;;;;;;-140.66;100.00;55571.53;5116962;28;20034;-73
2023/09/03 06:03:52;;;;;;;11.82;5.78;;;;;;;-140.66;100.00;55571.53;5117838;28;20035;-74
2023/09/03 06:06:38;;;;;;;9.13;5.78;;;;;;;-140.66;100.00;55571.53;5117432;28;20035;-73
2023/09/03 06:09:24;;;;;;;7.95;4.93;;;;;;;-140.66;100.00;55571.53;5116891;28;20031;-73
2023/09/03 06:12:09;;;;;;;6.57;5.30;;;;;;;-140.66;100.00;55571.53;5102755;28;20460;-74
2023/09/03 06:14:56;;;;;;;7.13;5.47;;;;;;;-140.66;100.00;55571.53;5116476;28;20031;-75
2023/09/03 06:17:42;;;;;;;11.02;5.43;;;;;;;-140.66;100.00;55571.53;5116743;28;20035;-73
2023/09/03 06:20:27;;;;;;;8.23;5.43;;;;;;;-140.66;100.00;55571.53;5116950;28;20032;-74
2023/09/03 06:23:16;;;;;;;7.18;5.78;;;;;;;-140.66;100.00;55571.53;5117647;28;20419;-73
2023/09/03 06:26:01;;;;;;;7.80;5.72;;;;;;;-140.66;100.00;55571.53;5103536;28;20062;-74
2023/09/03 06:28:47;;;;;;;8.60;6.25;;;;;;;-140.66;100.00;55571.53;5118164;28;20035;-73
2023/09/03 06:31:33;;;;;;;9.15;6.32;;;;;;;-140.66;100.00;55571.53;5116477;28;20427;-73
2023/09/03 06:34:20;;;;;;;10.95;6.47;;;;;;;-140.66;100.00;55571.53;5117754;28;20415;-73
2023/09/03 06:37:07;;;;;;;7.53;6.30;;;;;;;-140.66;100.00;55571.53;5117784;28;20114;-74
2023/09/03 06:39:53;;;;;;;6.88;6.07;;;;;;;-140.66;100.00;55571.53;5117269;28;20119;-73
2023/09/03 06:42:38;;;;;;;10.38;6.35;;;;;;;-140.66;100.00;55571.53;5118097;28;20032;-73
2023/09/03 06:45:24;;;;;;;7.78;6.00;;;;;;;-140.66;100.00;55571.53;5116281;28;20052;-73
2023/09/03 06:48:10;;;;;;;21.60;5.65;;;;;;;-140.66;100.00;55571.53;5118977;28;20060;-74
2023/09/03 06:50:56;;;;;;;7.75;5.35;;;;;;;-140.66;100.00;55571.53;5117123;28;20019;-75
2023/09/03 06:53:42;;;;;;;5.88;4.95;;;;;;;-140.66;100.00;55571.53;5115707;28;20031;-73
2023/09/03 06:56:28;;;;;;;7.63;4.85;;;;;;;-140.66;100.00;55571.53;5116643;28;20027;-74
2023/09/03 06:59:13;;;;;;;6.30;4.95;;;;;;;-140.66;100.00;55571.53;5117969;28;20039;-73
2023/09/03 07:02:00;;;;;;;6.90;4.70;;;;;;;-140.66;100.00;55571.53;5108717;28;20028;-72
2023/09/03 07:04:46;;;;;;;7.57;4.93;;;;;;;-140.66;100.00;55571.53;5124699;28;20419;-74
2023/09/03 07:07:32;;;;;;;5.35;4.40;;;;;;;-140.66;100.00;55571.53;5122760;28;20364;-73
2023/09/03 07:10:18;;;;;;;5.47;4.70;;;;;;;-140.66;100.00;55571.53;5107309;28;20030;-74
2023/09/03 07:13:03;;;;;;;6.80;4.75;;;;;;;-140.66;100.00;55571.53;5120153;28;20028;-74
2023/09/03 07:15:49;;;;;;;8.95;5.22;;;;;;;-140.66;100.00;55571.53;5123679;28;20024;-73
2023/09/03 07:18:35;;;;;;;7.47;4.72;;;;;;;-140.66;100.00;55571.53;5128589;28;20027;-73
2023/09/03 07:21:21;;;;;;;8.50;4.90;;;;;;;-140.66;100.00;55571.53;5111159;28;20019;-74
2023/09/03 07:24:06;;;;;;;6.68;4.65;;;;;;;-140.66;100.00;55571.53;5124863;28;20334;-73
2023/09/03 07:26:52;;;;;;;5.57;4.97;;;;;;;-140.66;100.00;55571.53;5122386;28;20015;-74
2023/09/03 07:29:38;;;;;;;6.70;4.78;;;;;;;-140.66;100.00;55571.53;5125123;28;20023;-74
2023/09/03 07:32:24;;;;;;;7.07;5.30;;;;;;;-140.66;100.00;55571.53;5125365;28;20019;-73
2023/09/03 07:35:09;;;;;;;6.50;4.53;;;;;;;-140.66;100.00;55571.53;5120788;28;20482;-75
2023/09/03 07:37:55;;;;;;;20.48;9.60;;;;;;;-140.66;100.00;55571.53;5127185;28;20053;-73
2023/09/03 07:40:41;;;;;;;6.30;5.38;;;;;;;-140.66;100.00;55571.53;5119335;28;20053;-74
2023/09/03 07:43:27;;;;;;;9.43;5.30;;;;;;;-140.66;100.00;55571.53;5117560;28;20054;-73
2023/09/03 07:46:12;;;;;;;5.90;5.13;;;;;;;-140.66;100.00;55571.53;5118078;28;20092;-74
2023/09/03 07:48:58;;;;;;;5.35;4.68;;;;;;;-140.66;100.00;55571.53;5117518;28;20085;-74
2023/09/03 07:51:44;;;;;;;10.75;5.80;;;;;;;-140.66;100.00;55571.53;5115348;28;20088;-76
2023/09/03 07:54:30;;;;;;;6.13;5.10;;;;;;;-140.66;100.00;55571.53;5115963;28;20024;-73
2023/09/03 07:57:15;;;;;;;8.80;5.28;;;;;;;-140.66;100.00;55571.53;5100867;28;20023;-73
2023/09/03 08:00:01;;;;;;;12.90;6.10;;;;;;;-140.66;100.00;55571.53;5119293;28;20342;-73
2023/09/03 08:02:47;;;;;;;10.20;6.38;;;;;;;-140.66;100.00;55571.53;5122544;28;20027;-73
2023/09/03 08:05:33;;;;;;;12.20;6.60;;;;;;;-140.66;100.00;55571.53;5104480;28;20028;-74
2023/09/03 08:08:18;;;;;;;8.27;5.05;;;;;;;-140.66;100.00;55571.53;5120334;28;20020;-73
2023/09/03 08:11:04;;;;;;;9.27;4.93;;;;;;;-140.66;100.00;55571.53;5128161;28;20087;-73
2023/09/03 08:13:51;;;;;;;16.88;7.25;;;;;;;-140.66;100.00;55571.53;5126247;28;20055;-73
2023/09/03 08:16:37;;;;;;;10.10;5.60;;;;;;;-140.66;100.00;55571.53;5129204;28;20034;-74
2023/09/03 08:19:23;;;;;;;7.53;4.47;;;;;;;-140.66;100.00;55571.53;5129417;28;20090;-74
2023/09/03 08:22:08;;;;;;;5.97;4.78;;;;;;;-140.66;100.00;55571.53;5130019;28;20090;-74
2023/09/03 08:24:54;;;;;;;6.90;4.78;;;;;;;-140.66;100.00;55571.53;5129630;28;20019;-73
2023/09/03 08:27:40;;;;;;;8.82;5.20;;;;;;;31.38;81.47;101486.53;5128965;28;20027;-73
2023/09/03 08:30:26;;;;;;;10.95;4.88;;;;;;;31.51;81.43;101476.25;5128358;28;20091;-72
2023/09/03 08:33:13;;;;;;;10.95;5.95;;;;;;;31.04;83.95;101486.88;5128152;28;20051;-75
2023/09/03 08:35:59;;;;;;;11.02;6.47;;;;;;;31.27;81.31;101485.63;5123930;28;20103;-73
2023/09/03 08:38:45;;;;;;;6.47;4.45;;;;;;;31.60;79.13;101478.09;5103252;28;20027;-73
2023/09/03 08:41:33;;;;;;;8.77;4.68;;;;;;;32.24;75.46;101466.50;5119449;28;20020;-73
2023/09/03 08:44:42;;;;;;;7.10;4.43;;;;;;;32.23;72.61;101464.78;5115580;28;20051;-75
2023/09/03 08:47:28;;;;;;;7.90;5.22;;;;;;;32.87;69.41;101457.53;5118045;28;20100;-74
2023/09/03 08:50:15;;;;;;;8.52;4.80;;;;;;;32.26;73.98;101450.06;5103326;28;20057;-75
2023/09/03 08:53:02;;;;;;;7.38;4.97;;;;;;;32.34;71.40;101447.50;5109950;28;20023;-73
2023/09/03 08:55:48;;;;;;;6.22;4.40;;;;;;;32.33;68.06;101437.63;5118263;28;20376;-74
2023/09/03 08:58:34;;;;;;;9.45;4.75;;;;;;;32.76;66.56;101437.88;5101418;28;20106;-74
2023/09/03 09:01:21;;;;;;;10.98;5.30;;;;;;;32.73;60.20;101444.47;5116473;28;20095;-73
2023/09/03 09:04:08;;;;;;;4.53;3.75;;;;;;;32.30;56.19;101436.09;5116126;28;20028;-73
2023/09/03 09:06:55;;;;;;;7.30;4.18;;;;;;;32.44;54.36;101434.75;5098643;28;20024;-73
2023/09/03 09:09:42;;;;;;;4.35;3.50;;;;;;;32.46;51.71;101432.75;5115179;28;20015;-74
2023/09/03 09:12:36;;;;;;;4.90;3.30;;;;;;;32.80;51.57;101422.97;5100686;28;20373;-73
2023/09/03 09:15:22;;;;;;;9.25;3.42;;;;;;;32.31;54.25;101420.66;5114062;28;20028;-75
2023/09/03 09:18:09;;;;;;;3.83;3.38;;;;;;;32.45;56.57;101420.16;5099946;28;20034;-74
2023/09/03 09:20:59;;;;;;;5.95;3.88;;;;;;;32.47;58.45;101426.31;5114658;28;20024;-73
2023/09/03 09:23:46;;;;;;;7.80;3.95;;;;;;;32.31;60.23;101417.97;5113834;28;20020;-73
2023/09/03 09:26:32;;;;;;;9.52;4.15;;;;;;;32.01;63.62;101412.75;5114326;28;20038;-74
2023/09/03 09:29:21;;;;;;;6.70;4.03;;;;;;;32.66;61.23;101405.34;5098200;28;20062;-74
2023/09/03 09:32:21;;;;;;;6.40;3.90;;;;;;;32.14;60.02;101407.84;5098649;28;20089;-74
2023/09/03 09:35:08;;;;;;;7.32;4.32;;;;;;;32.90;57.93;101402.94;5118539;28;20028;-75
2023/09/03 09:37:54;;;;;;;7.22;4.03;;;;;;;32.70;57.10;101395.06;5119420;28;20055;-74
2023/09/03 09:40:40;;;;;;;7.68;3.97;;;;;;;33.03;57.24;101397.97;5116949;28;20104;-73
2023/09/03 09:43:46;;;;;;;8.13;3.90;;;;;;;32.45;56.36;101393.03;5117434;28;20089;-73
2023/09/03 09:46:33;;;;;;;8.82;3.85;;;;;;;32.72;54.67;101391.19;5118788;28;20090;-73
2023/09/03 09:49:19;;;;;;;11.43;4.30;;;;;;;32.38;54.38;101387.34;5111812;28;20024;-73
2023/09/03 09:52:04;;;;;;;5.53;4.47;;;;;;;32.02;57.43;101369.19;5109646;28;20019;-73
2023/09/03 09:54:50;;;;;;;6.63;4.20;;;;;;;32.58;56.74;101361.00;5118628;28;20028;-74
2023/09/03 09:57:36;;;;;;;7.78;4.40;;;;;;;32.04;57.24;101360.91;5118810;28;20038;-74
2023/09/03 10:00:33;;;;;;;9.35;4.40;;;;;;;32.42;57.40;101364.34;5116783;28;20338;-76
2023/09/03 10:03:19;;;;;;;5.03;3.90;;;;;;;32.34;55.46;101366.13;5117838;28;20043;-73
2023/09/03 10:06:06;;;;;;;8.13;4.15;;;;;;;32.50;55.20;101358.19;5117525;28;20028;-73
2023/09/03 10:08:52;;;;;;;6.80;4.38;;;;;;;32.71;52.86;101364.19;5117359;28;20031;-74
2023/09/03 10:11:38;;;;;;;4.43;3.83;;;;;;;32.75;51.58;101358.28;5117944;28;20042;-73
2023/09/03 10:14:25;;;;;;;8.63;4.43;;;;;;;32.40;53.18;101346.50;5116250;28;20110;-74
2023/09/03 10:17:11;;;;;;;6.25;4.18;;;;;;;32.47;53.30;101340.34;5116198;28;20039;-73
2023/09/03 10:20:04;;;;;;;4.97;4.10;;;;;;;32.86;50.82;101330.09;5116157;28;20027;-74
2023/09/03 10:22:53;;;;;;;6.97;3.75;;;;;;;32.82;51.88;101329.53;5117056;28;20059;-72
2023/09/03 10:25:39;;;;;;;5.93;3.80;;;;;;;32.73;49.51;101327.72;5115837;28;20104;-73
2023/09/03 10:28:26;;;;;;;7.40;3.45;;;;;;;33.26;49.49;101319.63;5116744;28;20026;-73
2023/09/03 10:31:15;;;;;;;5.82;4.05;;;;;;;33.36;49.36;101323.09;5117216;28;20023;-74
2023/09/03 10:34:01;;;;;;;4.70;3.70;;;;;;;32.44;51.05;101323.50;5117806;28;20034;-73
2023/09/03 10:37:06;;;;;;;6.30;3.72;;;;;;;32.58;47.00;101312.97;5115570;28;20032;-74
2023/09/03 10:40:21;;;;;;;4.80;4.03;;;;;;;32.78;48.02;101314.53;5116917;28;20024;-73
2023/09/03 10:43:18;;;;;;;9.10;3.97;;;;;;;33.22;47.36;101308.19;5115197;28;20027;-73
2023/09/03 10:46:05;;;;;;;7.05;4.60;;;;;;;33.55;48.21;101309.31;5115753;28;20108;-74
2023/09/03 10:48:58;;;;;;;6.95;4.40;;;;;;;33.48;46.96;101308.25;5116123;28;20480;-74
2023/09/03 10:51:44;;;;;;;7.85;4.32;;;;;;;33.31;46.94;101306.41;5101156;28;20080;-74
2023/09/03 10:54:30;;;;;;;6.85;3.60;;;;;;;33.17;45.21;101302.38;5116776;28;20054;-73
2023/09/03 10:57:16;;;;;;;6.95;4.05;;;;;;;33.34;43.58;101303.38;5116085;28;20023;-73
2023/09/03 11:00:05;;;;;;;3.83;3.22;;;;;;;32.88;39.54;101298.22;5116836;28;20032;-74
2023/09/03 11:03:14;;;;;;;6.57;3.45;;;;;;;32.80;40.44;101293.53;5116522;28;20034;-72
2023/09/03 11:06:17;;;;;;;5.43;3.60;;;;;;;32.90;40.45;101291.59;5115822;28;20412;-72
2023/09/03 11:09:06;;;;;;;5.07;3.30;;;;;;;32.65;38.99;101286.94;5115254;28;20035;-73
2023/09/03 11:12:00;;;;;;;6.13;3.20;;;;;;;33.38;38.26;101285.75;5115721;28;20020;-73
2023/09/03 11:14:50;;;;;;;4.63;3.10;;;;;;;34.60;36.30;101290.59;5114702;28;20084;-73
2023/09/03 11:17:36;;;;;;;4.07;3.08;;;;;;;34.52;35.06;101287.88;5101226;28;20063;-73
2023/09/03 11:20:34;;;;;;;4.22;3.50;;;;;;;34.18;35.11;101276.19;5115906;28;20182;-73
2023/09/03 11:23:20;;;;;;;5.07;3.40;;;;;;;33.56;38.22;101271.13;5101388;28;20039;-73
2023/09/03 11:26:13;;;;;;;13.80;4.50;;;;;;;33.67;39.03;101275.41;5101473;28;20023;-73
2023/09/03 11:29:00;;;;;;;5.97;3.55;;;;;;;33.77;38.79;101263.41;5100854;28;20031;-73
2023/09/03 11:31:50;;;;;;;4.45;3.72;;;;;;;34.08;38.67;101269.19;5100447;28;20023;-73
2023/09/03 11:34:35;;;;;;;7.10;3.47;;;;;;;34.56;37.43;101264.75;5115655;28;20098;-73
2023/09/03 11:37:21;;;;;;;5.45;3.72;;;;;;;34.10;38.75;101257.13;5115207;28;20019;-75
2023/09/03 11:40:09;;;;;;;6.38;3.30;;;;;;;34.39;38.79;101256.75;5087003;28;20035;-74
2023/09/03 11:42:54;;;;;;;5.57;3.53;;;;;;;34.17;38.94;101251.88;5114294;28;20028;-72
2023/09/03 11:45:40;;;;;;;5.20;3.33;;;;;;;34.29;38.74;101247.81;5115316;28;20476;-72
2023/09/03 11:48:28;;;;;;;7.10;4.22;;;;;;;34.66;38.49;101237.34;5114339;28;20020;-73
2023/09/03 11:51:27;;;;;;;5.68;3.83;;;;;;;34.16;38.99;101234.69;5116409;28;20055;-74
2023/09/03 11:54:26;;;;;;;7.15;4.18;;;;;;;34.08;38.46;101229.22;5100645;28;20045;-74
2023/09/03 11:57:14;;;;;;;7.72;3.67;;;;;;;34.42;37.53;101223.72;5115150;28;20212;-74
2023/09/03 12:00:00;;;;;;;3.88;3.42;;;;;;;34.51;36.65;101217.28;5115926;28;20035;-73
2023/09/03 12:02:46;;;;;;;5.38;3.65;;;;;;;34.68;35.49;101214.38;5115090;28;20027;-73
2023/09/03 12:05:34;;;;;;;4.07;3.40;;;;;;;34.51;36.20;101220.00;5113887;28;20098;-73
2023/09/03 12:08:20;;;;;;;4.00;3.60;;;;;;;35.06;35.41;101207.44;5100233;28;20027;-73
2023/09/03 12:11:06;;;;;;;14.93;3.92;;;;;;;34.60;36.14;101205.38;5115456;28;20027;-71
2023/09/03 12:13:52;;;;;;;4.78;3.78;;;;;;;34.09;37.79;101197.44;5100041;28;20027;-74
2023/09/03 12:16:47;;;;;;;14.25;4.32;;;;;;;34.69;36.36;101194.31;5115232;28;20358;-74
2023/09/03 12:19:40;;;;;;;4.55;3.42;;;;;;;33.85;36.93;101197.34;5113914;28;20112;-74
2023/09/03 12:22:27;;;;;;;6.05;3.88;;;;;;;33.39;38.20;101189.66;5113309;28;20441;-74
2023/09/03 12:25:13;;;;;;;6.32;4.00;;;;;;;33.88;37.83;101178.84;5108398;28;20111;-73
2023/09/03 12:27:58;;;;;;;6.20;3.95;;;;;;;34.19;37.18;101174.50;5114984;28;20041;-73
2023/09/03 12:30:57;;;;;;;7.25;4.00;;;;;;;34.52;36.64;101180.88;5114645;28;20020;-74
2023/09/03 12:33:46;;;;;;;3.83;3.40;;;;;;;34.90;36.08;101178.34;5114502;28;20035;-75
2023/09/03 12:36:31;;;;;;;8.50;3.92;;;;;;;34.89;36.18;101173.06;5113613;28;20506;-75
2023/09/03 12:39:27;;;;;;;4.93;4.00;;;;;;;34.69;35.35;101164.38;5115598;28;20028;-75
2023/09/03 12:42:13;;;;;;;8.10;4.90;;;;;;;34.22;36.97;101162.44;5112597;28;20027;-74
2023/09/03 12:44:58;;;;;;;7.32;4.53;;;;;;;34.06;36.22;101159.66;5113142;28;20122;-72